createdAt,value
2023-05-10T00:00:15.730Z,24.55
2023-05-10T00:02:43.680Z,25.50
2023-05-10T00:05:11.488Z,25.25
2023-05-10T00:07:39.239Z,23.45
2023-05-10T00:10:07.682Z,24.30
2023-05-10T00:12:35.421Z,24.02
2023-05-10T00:15:03.826Z,21.48
2023-05-10T00:17:33.054Z,22.53
2023-05-10T00:20:01.402Z,22.17
2023-05-10T00:22:29.155Z,22.37
2023-05-10T00:24:56.920Z,21.95
2023-05-10T00:27:24.659Z,21.80
2023-05-10T00:29:52.557Z,22.95
2023-05-10T00:32:20.482Z,22.42
2023-05-10T00:34:49.631Z,23.70
2023-05-10T00:37:17.364Z,22.70
2023-05-10T00:39:45.086Z,22.60
2023-05-10T00:42:12.842Z,23.23
2023-05-10T00:44:40.615Z,22.17
2023-05-10T00:47:08.456Z,23.67
2023-05-10T00:49:36.746Z,21.88
2023-05-10T00:52:06.145Z,23.67
2023-05-10T00:54:34.074Z,23.90
2023-05-10T00:57:02.337Z,24.35
2023-05-10T00:59:30.791Z,23.83
2023-05-10T01:01:59.722Z,24.33
2023-05-10T01:04:27.450Z,24.20
2023-05-10T01:06:55.501Z,25.33
2023-05-10T01:13:25.995Z,25.55
2023-05-10T01:15:53.978Z,26.77
2023-05-10T01:18:22.364Z,25.73
2023-05-10T01:20:56.220Z,26.95
2023-05-10T01:23:45.215Z,25.60
2023-05-10T01:29:17.297Z,24.48
2023-05-10T01:32:06.802Z,25.52
2023-05-10T01:34:38.024Z,24.60
2023-05-10T01:37:10.030Z,26.17
2023-05-10T01:39:44.816Z,26.33
2023-05-10T01:42:13.669Z,24.65
2023-05-10T01:44:45.254Z,24.75
2023-05-10T01:47:17.072Z,25.25
2023-05-10T01:49:48.396Z,27.10
2023-05-10T01:52:20.240Z,25.42
2023-05-10T01:54:52.471Z,27.40
2023-05-10T01:57:22.097Z,26.13
2023-05-10T01:59:51.938Z,27.17
2023-05-10T02:02:22.559Z,26.48
2023-05-10T02:04:51.715Z,24.58
2023-05-10T02:09:49.017Z,26.40
2023-05-10T02:12:17.741Z,25.60
2023-05-10T02:14:46.425Z,25.98
2023-05-10T02:17:14.459Z,24.67
2023-05-10T02:19:44.263Z,27.10
2023-05-10T02:22:12.364Z,25.73
2023-05-10T02:24:40.851Z,25.15
2023-05-10T02:27:09.887Z,25.08
2023-05-10T02:29:38.679Z,26.52
2023-05-10T02:32:07.104Z,25.50
2023-05-10T02:34:35.359Z,25.67
2023-05-10T02:37:04.810Z,26.23
2023-05-10T02:39:33.949Z,26.33
2023-05-10T02:44:29.853Z,26.38
2023-05-10T02:46:57.982Z,26.77
2023-05-10T02:49:25.739Z,26.83
2023-05-10T02:51:57.742Z,27.90
2023-05-10T02:54:35.671Z,30.30
2023-05-10T02:57:06.529Z,27.92
2023-05-10T02:59:34.679Z,27.67
2023-05-10T03:02:03.114Z,27.02
2023-05-10T03:04:30.890Z,26.52
2023-05-10T03:06:58.799Z,28.08
2023-05-10T03:09:28.183Z,27.58
2023-05-10T03:12:02.662Z,27.15
2023-05-10T03:14:40.827Z,27.95
2023-05-10T03:17:12.621Z,26.27
2023-05-10T03:19:46.008Z,26.65
2023-05-10T03:22:15.291Z,26.98
2023-05-10T03:24:44.423Z,27.92
2023-05-10T03:29:40.504Z,27.17
2023-05-10T03:32:08.272Z,26.48
2023-05-10T03:34:37.255Z,27.70
2023-05-10T03:37:04.955Z,30.40
2023-05-10T03:39:32.649Z,27.27
2023-05-10T03:42:01.806Z,28.33
2023-05-10T03:46:57.965Z,26.77
2023-05-10T03:49:25.838Z,29.13
2023-05-10T03:51:53.600Z,28.20
2023-05-10T03:54:21.360Z,29.20
2023-05-10T03:56:49.446Z,29.92
2023-05-10T03:59:18.598Z,28.42
2023-05-10T04:04:14.037Z,30.30
2023-05-10T04:06:41.853Z,29.85
2023-05-10T04:09:10.164Z,30.05
2023-05-10T04:11:37.901Z,30.67
2023-05-10T04:14:05.599Z,30.90
2023-05-10T04:16:34.805Z,30.65
2023-05-10T04:19:02.601Z,31.33
2023-05-10T04:21:30.385Z,29.40
2023-05-10T04:23:58.118Z,31.00
2023-05-10T04:26:26.045Z,30.13
2023-05-10T04:28:53.781Z,31.10
2023-05-10T04:31:21.603Z,32.35
2023-05-10T04:33:50.916Z,30.17
2023-05-10T04:36:18.667Z,31.35
2023-05-10T04:38:46.476Z,30.38
2023-05-10T04:41:14.400Z,31.80
2023-05-10T04:43:42.124Z,30.02
2023-05-10T04:46:09.911Z,30.92
2023-05-10T04:48:37.621Z,32.20
2023-05-10T04:51:07.539Z,30.70
2023-05-10T04:53:35.359Z,33.60
2023-05-10T04:56:03.156Z,31.70
2023-05-10T04:58:30.906Z,32.13
2023-05-10T05:00:58.658Z,31.50
2023-05-10T05:03:26.536Z,32.75
2023-05-10T05:05:54.299Z,34.60
2023-05-10T05:08:23.818Z,34.53
2023-05-10T05:10:51.737Z,31.88
2023-05-10T05:13:19.635Z,34.88
2023-05-10T05:15:47.434Z,33.83
2023-05-10T05:18:15.199Z,33.28
2023-05-10T05:20:42.939Z,34.13
2023-05-10T05:23:10.653Z,33.70
2023-05-10T05:25:39.898Z,33.20
2023-05-10T05:30:35.516Z,34.75
2023-05-10T05:33:03.315Z,32.75
2023-05-10T05:35:32.187Z,34.75
2023-05-10T05:37:59.911Z,35.17
2023-05-10T05:40:27.833Z,35.67
2023-05-10T05:42:56.961Z,36.80
2023-05-10T05:47:52.442Z,36.00
2023-05-10T05:50:20.405Z,35.90
2023-05-10T05:52:48.126Z,36.42
2023-05-10T05:55:16.293Z,35.78
2023-05-10T05:57:44.133Z,36.90
2023-05-10T06:00:14.401Z,35.65
2023-05-10T06:02:45.505Z,34.20
2023-05-10T06:05:15.105Z,34.38
2023-05-10T06:07:43.872Z,33.92
2023-05-10T06:10:11.849Z,35.53
2023-05-10T06:12:39.591Z,35.92
2023-05-10T06:15:08.311Z,34.40
2023-05-10T06:17:37.446Z,36.15
2023-05-10T06:20:05.783Z,36.35
2023-05-10T06:22:33.556Z,39.38
2023-05-10T06:25:01.396Z,36.85
2023-05-10T06:27:29.152Z,36.80
2023-05-10T06:30:09.194Z,36.25
2023-05-10T06:32:41.945Z,34.97
2023-05-10T06:35:10.754Z,35.40
2023-05-10T06:37:38.547Z,36.60
2023-05-10T06:40:07.653Z,35.22
2023-05-10T06:45:03.252Z,34.72
2023-05-10T06:47:31.008Z,35.67
2023-05-10T06:50:00.155Z,34.67
2023-05-10T06:52:27.925Z,35.35
2023-05-10T06:54:55.696Z,34.28
2023-05-10T06:57:31.142Z,37.60
2023-05-10T07:00:00.080Z,36.60
2023-05-10T07:02:28.721Z,37.20
2023-05-10T07:04:56.535Z,34.67
2023-05-10T07:07:25.645Z,35.97
2023-05-10T07:12:20.999Z,35.97
2023-05-10T07:14:48.773Z,35.38
2023-05-10T07:17:16.700Z,34.40
2023-05-10T07:19:44.540Z,37.75
2023-05-10T07:22:12.502Z,37.05
2023-05-10T07:24:41.731Z,35.85
2023-05-10T07:27:10.057Z,36.78
2023-05-10T07:29:38.431Z,38.08
2023-05-10T07:32:06.955Z,37.05
2023-05-10T07:34:35.024Z,35.38
2023-05-10T07:37:03.276Z,36.07
2023-05-10T07:39:31.070Z,35.70
2023-05-10T07:42:00.191Z,39.30
2023-05-10T07:44:27.941Z,36.25
2023-05-10T07:46:56.564Z,36.22
2023-05-10T07:49:25.616Z,36.83
2023-05-10T07:54:20.889Z,34.67
2023-05-10T07:56:49.220Z,34.92
2023-05-10T07:59:19.290Z,32.33
2023-05-10T08:01:47.294Z,32.20
2023-05-10T08:04:15.085Z,31.73
2023-05-10T08:06:43.034Z,30.20
2023-05-10T08:09:11.913Z,31.65
2023-05-10T08:11:39.744Z,32.17
2023-05-10T08:14:07.469Z,30.30
2023-05-10T08:16:36.615Z,31.58
2023-05-10T08:19:04.526Z,33.05
2023-05-10T08:21:32.692Z,31.98
2023-05-10T08:24:00.431Z,31.80
2023-05-10T08:26:28.245Z,31.88
2023-05-10T08:28:55.989Z,31.50
2023-05-10T08:31:23.729Z,31.83
2023-05-10T08:33:53.641Z,31.33
2023-05-10T08:36:22.793Z,32.30
2023-05-10T08:38:52.588Z,32.85
2023-05-10T08:41:22.794Z,32.33
2023-05-10T08:43:51.824Z,30.85
2023-05-10T08:46:21.153Z,32.78
2023-05-10T08:48:50.185Z,32.65
2023-05-10T08:51:20.641Z,32.92
2023-05-10T08:53:48.504Z,32.22
2023-05-10T08:56:18.764Z,28.73
2023-05-10T08:58:46.753Z,27.77
2023-05-10T09:01:15.099Z,28.90
2023-05-10T09:03:43.196Z,29.67
2023-05-10T09:06:11.263Z,28.48
2023-05-10T09:08:40.487Z,27.77
2023-05-10T09:11:08.420Z,28.63
2023-05-10T09:13:37.714Z,29.30
2023-05-10T09:16:13.923Z,29.83
2023-05-10T09:18:50.513Z,30.40
2023-05-10T09:21:18.449Z,30.42
2023-05-10T09:23:48.542Z,28.92
2023-05-10T09:26:17.061Z,29.63
2023-05-10T09:28:55.079Z,30.05
2023-05-10T09:31:22.878Z,28.27
2023-05-10T09:33:51.479Z,29.40
2023-05-10T09:36:19.530Z,29.23
2023-05-10T09:38:50.014Z,29.08
2023-05-10T09:41:19.120Z,30.40
2023-05-10T09:43:46.877Z,28.23
2023-05-10T09:46:14.681Z,28.50
2023-05-10T09:48:44.922Z,28.20
2023-05-10T09:51:12.661Z,27.95
2023-05-10T09:53:40.432Z,28.50
2023-05-10T09:56:09.521Z,28.60
2023-05-10T09:58:40.015Z,27.75
2023-05-10T10:01:13.164Z,26.75
2023-05-10T10:03:44.581Z,27.67
2023-05-10T10:06:26.478Z,25.70
2023-05-10T10:08:58.722Z,27.52
2023-05-10T10:13:55.491Z,28.33
2023-05-10T10:16:23.854Z,26.83
2023-05-10T10:18:52.035Z,27.13
2023-05-10T10:21:20.107Z,27.53
2023-05-10T10:23:48.373Z,27.95
2023-05-10T10:26:16.981Z,28.10
2023-05-10T10:28:52.851Z,26.98
2023-05-10T10:31:28.899Z,28.23
2023-05-10T10:34:02.944Z,27.58
2023-05-10T10:36:31.351Z,27.77
2023-05-10T10:39:04.072Z,25.90
2023-05-10T10:41:34.541Z,26.40
2023-05-10T10:44:30.284Z,27.40
2023-05-10T10:47:01.963Z,26.88
2023-05-10T10:49:30.069Z,26.23
2023-05-10T10:52:23.897Z,27.17
2023-05-10T10:54:56.662Z,26.75
2023-05-10T10:57:24.398Z,26.33
2023-05-10T10:59:53.542Z,25.75
2023-05-10T11:02:45.307Z,26.00
2023-05-10T11:05:46.447Z,26.67
2023-05-10T11:08:19.378Z,27.85
2023-05-10T11:11:08.875Z,27.45
2023-05-10T11:13:40.684Z,28.17
2023-05-10T11:16:14.884Z,26.63
2023-05-10T11:18:42.967Z,27.33
2023-05-10T11:21:11.581Z,27.03
2023-05-10T11:23:52.927Z,28.85
2023-05-10T11:26:24.116Z,28.58
2023-05-10T11:28:52.344Z,28.17
2023-05-10T11:31:22.503Z,28.73
2023-05-10T11:33:51.386Z,28.13
2023-05-10T11:36:20.938Z,27.70
2023-05-10T11:38:49.556Z,27.85
2023-05-10T11:41:19.692Z,27.30
2023-05-10T11:43:49.802Z,29.17
2023-05-10T11:46:18.473Z,28.67
2023-05-10T11:48:47.623Z,28.67
2023-05-10T11:51:15.710Z,29.10
2023-05-10T11:53:43.632Z,28.73
2023-05-10T11:56:12.361Z,26.92
2023-05-10T11:58:41.035Z,27.83
2023-05-10T12:01:10.151Z,25.75
2023-05-10T12:03:38.319Z,26.15
2023-05-10T12:06:09.083Z,26.35
2023-05-10T12:08:36.884Z,25.00
2023-05-10T12:11:08.915Z,25.13
2023-05-10T12:13:40.038Z,25.40
2023-05-10T12:16:15.459Z,25.38
2023-05-10T12:18:43.837Z,24.63
2023-05-10T12:21:13.713Z,24.05
2023-05-10T12:23:41.923Z,23.92
2023-05-10T12:26:11.727Z,23.88
2023-05-10T12:28:40.326Z,25.60
2023-05-10T12:31:08.656Z,23.90
2023-05-10T12:33:42.600Z,23.73
2023-05-10T12:36:11.518Z,24.05
2023-05-10T12:41:13.998Z,22.48
2023-05-10T12:43:42.212Z,22.67
2023-05-10T12:46:10.782Z,21.35
2023-05-10T12:48:40.145Z,21.52
2023-05-10T12:51:10.293Z,21.40
2023-05-10T12:53:38.231Z,21.02
2023-05-10T12:56:08.292Z,21.75
2023-05-10T12:58:36.422Z,20.38
2023-05-10T13:01:05.734Z,20.95
2023-05-10T13:03:33.797Z,21.10
2023-05-10T13:06:01.583Z,21.77
2023-05-10T13:08:34.206Z,20.73
2023-05-10T13:11:02.740Z,21.25
2023-05-10T13:13:31.856Z,21.92
2023-05-10T13:15:59.632Z,20.98
2023-05-10T13:18:27.718Z,21.23
2023-05-10T13:20:56.759Z,20.70
2023-05-10T13:23:24.582Z,21.50
2023-05-10T13:25:52.352Z,20.67
2023-05-10T13:28:20.066Z,20.48
2023-05-10T13:30:49.222Z,20.73
2023-05-10T13:33:17.045Z,19.55
2023-05-10T13:35:44.965Z,21.55
2023-05-10T13:38:12.814Z,20.95
2023-05-10T13:40:40.604Z,20.47
2023-05-10T13:43:08.668Z,20.30
2023-05-10T13:45:36.753Z,19.95
2023-05-10T13:48:06.864Z,20.38
2023-05-10T13:50:34.884Z,20.48
2023-05-10T13:53:02.678Z,20.43
2023-05-10T13:55:31.748Z,20.58
2023-05-10T13:57:59.493Z,21.23
2023-05-10T14:00:28.141Z,20.88
2023-05-10T14:02:56.127Z,21.13
2023-05-10T14:05:26.487Z,21.23
2023-05-10T14:07:54.766Z,21.15
2023-05-10T14:10:22.620Z,20.17
2023-05-10T14:12:50.448Z,20.38
2023-05-10T14:15:18.349Z,19.77
2023-05-10T14:17:46.333Z,20.58
2023-05-10T14:20:14.094Z,20.58
2023-05-10T14:22:43.317Z,20.50
2023-05-10T14:25:11.441Z,19.77
2023-05-10T14:27:39.164Z,19.13
2023-05-10T14:30:08.288Z,20.80
2023-05-10T14:32:37.558Z,19.90
2023-05-10T14:35:06.930Z,19.80
2023-05-10T14:37:34.743Z,20.40
2023-05-10T14:40:05.393Z,19.15
2023-05-10T14:42:33.326Z,19.90
2023-05-10T14:45:01.076Z,20.07
2023-05-10T14:47:28.913Z,19.83
2023-05-10T14:49:56.684Z,19.03
2023-05-10T14:52:24.473Z,19.10
2023-05-10T14:54:52.315Z,18.67
2023-05-10T14:57:21.426Z,18.70
2023-05-10T14:59:49.171Z,18.90
2023-05-10T15:02:17.417Z,19.33
2023-05-10T15:04:45.603Z,20.17
2023-05-10T15:07:15.774Z,20.17
2023-05-10T15:09:43.542Z,21.10
2023-05-10T15:12:11.384Z,20.75
2023-05-10T15:14:40.529Z,21.38
2023-05-10T15:17:08.817Z,20.95
2023-05-10T15:19:37.027Z,20.45
2023-05-10T15:22:08.063Z,20.67
2023-05-10T15:24:36.955Z,21.88
2023-05-10T15:29:32.535Z,22.05
2023-05-10T15:32:19.184Z,24.15
2023-05-10T15:34:46.958Z,23.67
2023-05-10T15:37:14.843Z,23.65
2023-05-10T15:39:42.590Z,23.35
2023-05-10T15:42:10.392Z,22.25
2023-05-10T15:44:39.415Z,24.25
2023-05-10T15:49:36.826Z,25.10
2023-05-10T15:52:04.591Z,24.60
2023-05-10T15:54:32.369Z,25.30
2023-05-10T15:57:00.171Z,24.48
2023-05-10T15:59:27.935Z,27.60
2023-05-10T16:01:55.845Z,27.27
2023-05-10T16:04:24.128Z,25.83
2023-05-10T16:07:00.628Z,27.98
2023-05-10T16:09:28.409Z,27.05
2023-05-10T16:11:56.790Z,27.02
2023-05-10T16:14:24.801Z,24.15
2023-05-10T16:16:52.771Z,23.15
2023-05-10T16:19:20.860Z,22.17
2023-05-10T16:21:48.769Z,23.55
2023-05-10T16:24:17.979Z,22.15
2023-05-10T16:26:46.108Z,21.40
2023-05-10T16:29:13.904Z,19.55
2023-05-10T16:31:41.655Z,19.35
2023-05-10T16:34:09.533Z,19.35
2023-05-10T16:36:37.279Z,19.92
2023-05-10T16:39:05.244Z,19.17
2023-05-10T16:41:35.698Z,19.38
2023-05-10T16:44:03.745Z,19.05
2023-05-10T16:46:31.692Z,19.20
2023-05-10T16:48:59.815Z,20.05
2023-05-10T16:51:28.023Z,20.50
2023-05-10T16:53:56.034Z,21.03
2023-05-10T16:56:23.988Z,24.45
2023-05-10T16:58:54.000Z,22.02
2023-05-10T17:01:23.203Z,21.42
2023-05-10T17:03:52.182Z,21.25
2023-05-10T17:06:20.000Z,21.45
2023-05-10T17:08:48.896Z,21.65
2023-05-10T17:11:17.711Z,21.42
2023-05-10T17:13:46.524Z,21.63
2023-05-10T17:16:16.826Z,21.45
2023-05-10T17:18:46.066Z,21.98
2023-05-10T17:21:14.836Z,21.38
2023-05-10T17:23:43.481Z,22.33
2023-05-10T17:26:12.083Z,21.05
2023-05-10T17:28:41.210Z,21.25
2023-05-10T17:31:10.232Z,21.73
2023-05-10T17:33:40.524Z,21.05
2023-05-10T17:36:09.784Z,22.00
2023-05-10T17:41:06.291Z,22.73
2023-05-10T17:43:34.121Z,22.80
2023-05-10T17:46:02.013Z,22.45
2023-05-10T17:48:29.767Z,23.20
2023-05-10T17:50:58.944Z,22.48
2023-05-10T17:53:27.007Z,24.65
2023-05-10T17:55:57.918Z,23.40
2023-05-10T17:58:25.994Z,24.15
2023-05-10T18:00:54.167Z,24.08
2023-05-10T18:03:22.268Z,22.87
2023-05-10T18:05:50.913Z,23.02
2023-05-10T18:08:22.883Z,23.55
2023-05-10T18:10:50.717Z,24.55
2023-05-10T18:13:18.561Z,23.02
2023-05-10T18:15:46.438Z,23.48
2023-05-10T18:18:14.271Z,23.88
2023-05-10T18:20:42.053Z,24.20
2023-05-10T18:23:09.799Z,23.45
2023-05-10T18:25:39.056Z,23.92
2023-05-10T18:28:08.117Z,23.98
2023-05-10T18:30:35.915Z,23.35
2023-05-10T18:33:03.824Z,24.00
2023-05-10T18:35:31.604Z,24.70
2023-05-10T18:37:59.489Z,24.20
2023-05-10T18:40:28.574Z,24.15
2023-05-10T18:47:53.062Z,23.30
2023-05-10T18:50:20.887Z,24.15
2023-05-10T18:52:49.017Z,23.77
2023-05-10T18:55:17.026Z,24.20
2023-05-10T18:57:45.347Z,24.20
2023-05-10T19:00:15.067Z,23.63
2023-05-10T19:02:43.051Z,23.20
2023-05-10T19:05:11.449Z,23.65
2023-05-10T19:07:40.584Z,23.38
2023-05-10T19:12:37.466Z,22.80
2023-05-10T19:15:05.864Z,23.42
2023-05-10T19:17:36.464Z,23.50
2023-05-10T19:20:05.501Z,23.17
2023-05-10T19:22:45.426Z,23.48
2023-05-10T19:25:21.602Z,23.15
2023-05-10T19:27:49.470Z,22.73
2023-05-10T19:30:17.263Z,24.15
2023-05-10T19:32:46.409Z,23.63
2023-05-10T19:35:15.065Z,23.45
2023-05-10T19:37:46.094Z,23.00
2023-05-10T19:40:15.696Z,24.13
2023-05-10T19:42:43.499Z,22.80
2023-05-10T19:45:12.366Z,24.05
2023-05-10T19:47:41.919Z,23.65
2023-05-10T19:50:12.422Z,22.48
2023-05-10T19:52:40.457Z,23.05
2023-05-10T19:55:09.383Z,23.20
2023-05-10T19:57:37.362Z,23.83
2023-05-10T20:00:06.616Z,23.70
2023-05-10T20:02:34.467Z,23.58
2023-05-10T20:05:02.274Z,23.45
2023-05-10T20:07:31.380Z,23.83
2023-05-10T20:12:27.884Z,24.10
2023-05-10T20:14:55.709Z,24.67
2023-05-10T20:17:23.586Z,24.95
2023-05-10T20:19:51.335Z,23.60
2023-05-10T20:22:19.065Z,25.35
2023-05-10T20:24:48.460Z,24.15
2023-05-10T20:27:16.300Z,24.40
2023-05-10T20:29:44.109Z,24.02
2023-05-10T20:32:11.899Z,24.35
2023-05-10T20:34:39.693Z,23.45
2023-05-10T20:37:08.116Z,24.27
2023-05-10T20:39:35.877Z,24.30
2023-05-10T20:42:05.480Z,25.02
2023-05-10T20:44:33.228Z,25.35
2023-05-10T20:47:01.031Z,25.50
2023-05-10T20:49:29.446Z,25.48
2023-05-10T20:51:57.346Z,25.93
2023-05-10T20:54:25.320Z,26.48
2023-05-10T20:56:53.100Z,26.98
2023-05-10T20:59:22.513Z,26.10
2023-05-10T21:01:50.430Z,27.52
2023-05-10T21:04:18.258Z,26.33
2023-05-10T21:06:46.779Z,25.95
2023-05-10T21:09:14.504Z,26.67
2023-05-10T21:11:42.286Z,26.55
2023-05-10T21:14:10.321Z,28.77
2023-05-10T21:16:39.506Z,28.70
2023-05-10T21:19:07.633Z,28.38
2023-05-10T21:21:35.691Z,28.13
2023-05-10T21:24:03.488Z,28.52
2023-05-10T21:26:31.354Z,28.45
2023-05-10T21:28:59.395Z,27.95
2023-05-10T21:31:27.163Z,28.05
2023-05-10T21:33:56.898Z,27.42
2023-05-10T21:36:26.242Z,24.27
2023-05-10T21:38:54.075Z,25.40
2023-05-10T21:41:21.923Z,25.40
2023-05-10T21:43:49.694Z,27.17
2023-05-10T21:46:17.546Z,29.38
2023-05-10T21:48:45.424Z,27.73
2023-05-10T21:51:15.123Z,28.42
2023-05-10T21:53:42.908Z,28.00
2023-05-10T21:56:10.659Z,29.02
2023-05-10T21:58:38.411Z,27.98
2023-05-10T22:01:06.452Z,27.85
2023-05-10T22:03:34.262Z,28.75
2023-05-10T22:06:02.101Z,28.45
2023-05-10T22:08:31.173Z,29.83
2023-05-10T22:10:59.013Z,28.83
2023-05-10T22:13:26.763Z,29.85
2023-05-10T22:15:54.509Z,30.40
2023-05-10T22:18:22.294Z,29.38
2023-05-10T22:20:50.171Z,29.95
2023-05-10T22:23:17.912Z,31.02
2023-05-10T22:25:47.040Z,31.35
2023-05-10T22:30:42.859Z,30.55
2023-05-10T22:33:10.655Z,30.83
2023-05-10T22:35:38.405Z,31.17
2023-05-10T22:38:06.193Z,30.33
2023-05-10T22:40:33.884Z,30.05
2023-05-10T22:43:03.349Z,28.88
2023-05-10T22:45:31.153Z,27.65
2023-05-10T22:48:00.242Z,27.80
2023-05-10T22:52:55.632Z,28.95
2023-05-10T22:55:23.497Z,29.38
2023-05-10T22:57:51.572Z,30.27
2023-05-10T23:00:21.113Z,30.05
2023-05-10T23:02:48.938Z,30.33
2023-05-10T23:05:16.967Z,29.92
2023-05-10T23:07:44.718Z,30.42
2023-05-10T23:10:12.599Z,31.60
2023-05-10T23:12:40.456Z,31.33
2023-05-10T23:15:09.576Z,31.88
2023-05-10T23:17:38.705Z,30.13
2023-05-10T23:22:34.988Z,32.70
2023-05-10T23:25:03.007Z,32.17
2023-05-10T23:27:30.892Z,32.13
2023-05-10T23:29:58.746Z,33.75
2023-05-10T23:32:26.669Z,34.80
2023-05-10T23:34:55.785Z,33.53
2023-05-10T23:39:52.110Z,33.50
2023-05-10T23:42:19.884Z,35.25
2023-05-10T23:44:47.790Z,36.03
2023-05-10T23:47:15.622Z,36.67
2023-05-10T23:49:43.349Z,36.58
2023-05-10T23:52:12.525Z,34.92
2023-05-10T23:57:07.857Z,34.92
2023-05-10T23:59:35.591Z,34.83
